sensor_id;sensor_type;location;lat;lon;timestamp;temperature;humidity
75321;DHT22;68337;52.196;5.660;2023-11-25T00:00:45;3.60;99.90
75321;DHT22;68337;52.196;5.660;2023-11-25T00:03:12;3.60;99.90
75321;DHT22;68337;52.196;5.660;2023-11-25T00:05:41;3.60;99.90
75321;DHT22;68337;52.196;5.660;2023-11-25T00:08:07;3.60;99.90
75321;DHT22;68337;52.196;5.660;2023-11-25T00:10:33;3.50;99.90
75321;DHT22;68337;52.196;5.660;2023-11-25T00:12:59;3.50;99.90
75321;DHT22;68337;52.196;5.660;2023-11-25T00:15:25;3.40;99.90
75321;DHT22;68337;52.196;5.660;2023-11-25T00:17:51;3.40;99.90
75321;DHT22;68337;52.196;5.660;2023-11-25T00:20:18;3.40;99.90
75321;DHT22;68337;52.196;5.660;2023-11-25T00:22:44;3.40;99.90
75321;DHT22;68337;52.196;5.660;2023-11-25T00:25:10;3.50;99.90
75321;DHT22;68337;52.196;5.660;2023-11-25T00:27:37;3.50;99.90
75321;DHT22;68337;52.196;5.660;2023-11-25T00:30:04;3.60;99.90
75321;DHT22;68337;52.196;5.660;2023-11-25T00:32:30;3.70;99.90
75321;DHT22;68337;52.196;5.660;2023-11-25T00:34:56;3.70;99.90
75321;DHT22;68337;52.196;5.660;2023-11-25T00:37:22;3.80;99.90
75321;DHT22;68337;52.196;5.660;2023-11-25T00:39:48;3.80;99.90
75321;DHT22;68337;52.196;5.660;2023-11-25T00:42:14;3.90;99.90
75321;DHT22;68337;52.196;5.660;2023-11-25T00:44:40;3.90;99.90
75321;DHT22;68337;52.196;5.660;2023-11-25T00:47:06;4.00;99.90
75321;DHT22;68337;52.196;5.660;2023-11-25T00:49:37;4.00;99.90
75321;DHT22;68337;52.196;5.660;2023-11-25T00:52:05;4.20;99.90
75321;DHT22;68337;52.196;5.660;2023-11-25T00:54:31;4.30;99.90
75321;DHT22;68337;52.196;5.660;2023-11-25T00:56:57;4.30;99.90
75321;DHT22;68337;52.196;5.660;2023-11-25T00:59:27;4.30;99.90
75321;DHT22;68337;52.196;5.660;2023-11-25T01:01:52;4.30;99.90
75321;DHT22;68337;52.196;5.660;2023-11-25T01:04:18;4.30;99.90
75321;DHT22;68337;52.196;5.660;2023-11-25T01:06:45;4.30;99.90
75321;DHT22;68337;52.196;5.660;2023-11-25T01:09:14;4.40;99.90
75321;DHT22;68337;52.196;5.660;2023-11-25T01:11:42;4.30;99.90
75321;DHT22;68337;52.196;5.660;2023-11-25T01:14:08;4.30;99.90
75321;DHT22;68337;52.196;5.660;2023-11-25T01:16:34;4.40;99.90
75321;DHT22;68337;52.196;5.660;2023-11-25T01:19:00;4.30;99.90
75321;DHT22;68337;52.196;5.660;2023-11-25T01:21:25;4.40;99.90
75321;DHT22;68337;52.196;5.660;2023-11-25T01:23:51;4.30;99.90
75321;DHT22;68337;52.196;5.660;2023-11-25T01:26:17;4.30;99.90
75321;DHT22;68337;52.196;5.660;2023-11-25T01:28:43;4.40;99.90
75321;DHT22;68337;52.196;5.660;2023-11-25T01:31:12;4.40;99.90
75321;DHT22;68337;52.196;5.660;2023-11-25T01:33:40;4.50;99.90
75321;DHT22;68337;52.196;5.660;2023-11-25T01:36:08;4.70;99.90
75321;DHT22;68337;52.196;5.660;2023-11-25T01:38:38;4.70;99.90
75321;DHT22;68337;52.196;5.660;2023-11-25T01:41:04;4.80;99.90
75321;DHT22;68337;52.196;5.660;2023-11-25T01:43:31;4.80;99.90
75321;DHT22;68337;52.196;5.660;2023-11-25T01:45:57;4.80;99.90
75321;DHT22;68337;52.196;5.660;2023-11-25T01:48:28;4.80;99.90
75321;DHT22;68337;52.196;5.660;2023-11-25T01:50:57;4.80;99.90
75321;DHT22;68337;52.196;5.660;2023-11-25T01:53:25;4.80;99.90
75321;DHT22;68337;52.196;5.660;2023-11-25T01:55:53;4.80;99.90
75321;DHT22;68337;52.196;5.660;2023-11-25T01:58:19;4.90;99.90
75321;DHT22;68337;52.196;5.660;2023-11-25T02:00:49;4.90;99.90
75321;DHT22;68337;52.196;5.660;2023-11-25T02:03:15;4.90;99.90
75321;DHT22;68337;52.196;5.660;2023-11-25T02:05:47;4.90;99.90
75321;DHT22;68337;52.196;5.660;2023-11-25T02:08:15;4.90;99.90
75321;DHT22;68337;52.196;5.660;2023-11-25T02:10:42;4.80;99.90
75321;DHT22;68337;52.196;5.660;2023-11-25T02:13:08;4.90;99.90
75321;DHT22;68337;52.196;5.660;2023-11-25T02:15:37;4.80;99.90
75321;DHT22;68337;52.196;5.660;2023-11-25T02:18:04;4.70;99.90
75321;DHT22;68337;52.196;5.660;2023-11-25T02:20:34;4.60;99.90
75321;DHT22;68337;52.196;5.660;2023-11-25T02:23:04;4.60;99.90
75321;DHT22;68337;52.196;5.660;2023-11-25T02:25:33;4.50;99.90
75321;DHT22;68337;52.196;5.660;2023-11-25T02:28:01;4.40;99.90
75321;DHT22;68337;52.196;5.660;2023-11-25T02:30:26;4.40;99.90
75321;DHT22;68337;52.196;5.660;2023-11-25T02:32:52;4.40;99.90
75321;DHT22;68337;52.196;5.660;2023-11-25T02:35:19;4.30;99.90
75321;DHT22;68337;52.196;5.660;2023-11-25T02:37:46;4.20;99.90
75321;DHT22;68337;52.196;5.660;2023-11-25T02:40:15;4.20;99.90
75321;DHT22;68337;52.196;5.660;2023-11-25T02:42:44;4.10;99.90
75321;DHT22;68337;52.196;5.660;2023-11-25T02:45:15;4.00;99.90
75321;DHT22;68337;52.196;5.660;2023-11-25T02:47:46;4.00;99.90
75321;DHT22;68337;52.196;5.660;2023-11-25T02:50:13;3.90;99.90
75321;DHT22;68337;52.196;5.660;2023-11-25T02:52:40;3.80;99.90
75321;DHT22;68337;52.196;5.660;2023-11-25T02:55:10;3.70;99.90
75321;DHT22;68337;52.196;5.660;2023-11-25T02:57:40;3.60;99.90
75321;DHT22;68337;52.196;5.660;2023-11-25T03:00:16;3.60;99.90
75321;DHT22;68337;52.196;5.660;2023-11-25T03:03:02;3.50;99.90
75321;DHT22;68337;52.196;5.660;2023-11-25T03:05:45;3.40;99.90
75321;DHT22;68337;52.196;5.660;2023-11-25T03:08:12;3.20;99.90
75321;DHT22;68337;52.196;5.660;2023-11-25T03:10:42;3.20;99.90
75321;DHT22;68337;52.196;5.660;2023-11-25T03:13:11;3.00;99.90
75321;DHT22;68337;52.196;5.660;2023-11-25T03:15:40;3.00;99.90
75321;DHT22;68337;52.196;5.660;2023-11-25T03:18:06;3.00;99.90
75321;DHT22;68337;52.196;5.660;2023-11-25T03:20:39;2.90;99.90
75321;DHT22;68337;52.196;5.660;2023-11-25T03:23:05;2.90;99.90
75321;DHT22;68337;52.196;5.660;2023-11-25T03:25:32;2.80;99.90
75321;DHT22;68337;52.196;5.660;2023-11-25T03:27:58;2.80;99.90
75321;DHT22;68337;52.196;5.660;2023-11-25T03:30:24;2.80;99.90
75321;DHT22;68337;52.196;5.660;2023-11-25T03:32:52;2.90;99.90
75321;DHT22;68337;52.196;5.660;2023-11-25T03:35:18;3.00;99.90
75321;DHT22;68337;52.196;5.660;2023-11-25T03:37:43;3.10;99.90
75321;DHT22;68337;52.196;5.660;2023-11-25T03:40:09;3.10;99.90
75321;DHT22;68337;52.196;5.660;2023-11-25T03:42:42;3.10;99.90
75321;DHT22;68337;52.196;5.660;2023-11-25T03:45:08;3.20;99.90
75321;DHT22;68337;52.196;5.660;2023-11-25T03:47:34;3.30;99.90
75321;DHT22;68337;52.196;5.660;2023-11-25T03:50:00;3.30;99.90
75321;DHT22;68337;52.196;5.660;2023-11-25T03:52:25;3.50;99.90
75321;DHT22;68337;52.196;5.660;2023-11-25T03:54:51;3.60;99.90
75321;DHT22;68337;52.196;5.660;2023-11-25T03:57:18;3.60;99.90
75321;DHT22;68337;52.196;5.660;2023-11-25T03:59:47;4.00;99.90
75321;DHT22;68337;52.196;5.660;2023-11-25T04:02:13;4.30;99.90
75321;DHT22;68337;52.196;5.660;2023-11-25T04:04:38;4.50;99.90
75321;DHT22;68337;52.196;5.660;2023-11-25T04:07:04;4.50;99.90
75321;DHT22;68337;52.196;5.660;2023-11-25T04:09:30;4.50;99.90
75321;DHT22;68337;52.196;5.660;2023-11-25T04:12:02;4.60;99.90
75321;DHT22;68337;52.196;5.660;2023-11-25T04:14:29;4.60;99.90
75321;DHT22;68337;52.196;5.660;2023-11-25T04:16:55;4.70;99.90
75321;DHT22;68337;52.196;5.660;2023-11-25T04:19:22;4.70;99.90
75321;DHT22;68337;52.196;5.660;2023-11-25T04:21:47;4.80;99.90
75321;DHT22;68337;52.196;5.660;2023-11-25T04:24:16;4.80;99.90
75321;DHT22;68337;52.196;5.660;2023-11-25T04:26:43;4.80;99.90
75321;DHT22;68337;52.196;5.660;2023-11-25T04:29:08;5.00;99.90
75321;DHT22;68337;52.196;5.660;2023-11-25T04:31:37;5.00;99.90
75321;DHT22;68337;52.196;5.660;2023-11-25T04:34:06;5.10;99.90
75321;DHT22;68337;52.196;5.660;2023-11-25T04:36:31;5.00;99.90
75321;DHT22;68337;52.196;5.660;2023-11-25T04:38:58;5.00;99.90
75321;DHT22;68337;52.196;5.660;2023-11-25T04:41:25;4.90;99.90
75321;DHT22;68337;52.196;5.660;2023-11-25T04:43:51;4.90;99.90
75321;DHT22;68337;52.196;5.660;2023-11-25T04:46:23;4.80;99.90
75321;DHT22;68337;52.196;5.660;2023-11-25T04:48:48;4.80;99.90
75321;DHT22;68337;52.196;5.660;2023-11-25T04:51:23;4.70;99.90
75321;DHT22;68337;52.196;5.660;2023-11-25T04:53:49;4.70;99.90
75321;DHT22;68337;52.196;5.660;2023-11-25T04:56:14;4.70;99.90
75321;DHT22;68337;52.196;5.660;2023-11-25T04:58:46;4.60;99.90
75321;DHT22;68337;52.196;5.660;2023-11-25T05:01:12;4.50;99.90
75321;DHT22;68337;52.196;5.660;2023-11-25T05:03:41;4.40;99.90
75321;DHT22;68337;52.196;5.660;2023-11-25T05:06:10;4.40;99.90
75321;DHT22;68337;52.196;5.660;2023-11-25T05:08:36;4.30;99.90
75321;DHT22;68337;52.196;5.660;2023-11-25T05:11:01;4.20;99.90
75321;DHT22;68337;52.196;5.660;2023-11-25T05:13:27;4.10;99.90
75321;DHT22;68337;52.196;5.660;2023-11-25T05:15:54;4.00;99.90
75321;DHT22;68337;52.196;5.660;2023-11-25T05:18:20;3.90;99.90
75321;DHT22;68337;52.196;5.660;2023-11-25T05:20:47;3.90;99.90
75321;DHT22;68337;52.196;5.660;2023-11-25T05:23:12;3.80;99.90
75321;DHT22;68337;52.196;5.660;2023-11-25T05:25:38;3.90;99.90
75321;DHT22;68337;52.196;5.660;2023-11-25T05:28:04;3.90;99.90
75321;DHT22;68337;52.196;5.660;2023-11-25T05:30:33;3.90;99.90
75321;DHT22;68337;52.196;5.660;2023-11-25T05:32:58;3.90;99.90
75321;DHT22;68337;52.196;5.660;2023-11-25T05:35:24;3.80;99.90
75321;DHT22;68337;52.196;5.660;2023-11-25T05:37:53;3.80;99.90
75321;DHT22;68337;52.196;5.660;2023-11-25T05:40:18;3.80;99.90
75321;DHT22;68337;52.196;5.660;2023-11-25T05:42:45;3.80;99.90
75321;DHT22;68337;52.196;5.660;2023-11-25T05:45:18;3.90;99.90
75321;DHT22;68337;52.196;5.660;2023-11-25T05:47:46;3.80;99.90
75321;DHT22;68337;52.196;5.660;2023-11-25T05:50:16;3.80;99.90
75321;DHT22;68337;52.196;5.660;2023-11-25T05:52:45;3.80;99.90
75321;DHT22;68337;52.196;5.660;2023-11-25T05:55:12;3.70;99.90
75321;DHT22;68337;52.196;5.660;2023-11-25T05:57:38;3.70;99.90
75321;DHT22;68337;52.196;5.660;2023-11-25T06:00:04;3.70;99.90
75321;DHT22;68337;52.196;5.660;2023-11-25T06:02:30;3.80;99.90
75321;DHT22;68337;52.196;5.660;2023-11-25T06:04:56;3.80;99.90
75321;DHT22;68337;52.196;5.660;2023-11-25T06:07:24;3.70;99.90
75321;DHT22;68337;52.196;5.660;2023-11-25T06:09:49;3.70;99.90
75321;DHT22;68337;52.196;5.660;2023-11-25T06:12:15;3.70;99.90
75321;DHT22;68337;52.196;5.660;2023-11-25T06:14:41;3.80;99.90
75321;DHT22;68337;52.196;5.660;2023-11-25T06:17:07;3.70;99.90
75321;DHT22;68337;52.196;5.660;2023-11-25T06:19:33;3.80;99.90
75321;DHT22;68337;52.196;5.660;2023-11-25T06:21:59;3.80;99.90
75321;DHT22;68337;52.196;5.660;2023-11-25T06:24:26;3.80;99.90
75321;DHT22;68337;52.196;5.660;2023-11-25T06:26:52;3.80;99.90
75321;DHT22;68337;52.196;5.660;2023-11-25T06:29:19;3.80;99.90
75321;DHT22;68337;52.196;5.660;2023-11-25T06:31:44;3.80;99.90
75321;DHT22;68337;52.196;5.660;2023-11-25T06:34:11;3.80;99.90
75321;DHT22;68337;52.196;5.660;2023-11-25T06:36:37;3.90;99.90
75321;DHT22;68337;52.196;5.660;2023-11-25T06:39:03;3.90;99.90
75321;DHT22;68337;52.196;5.660;2023-11-25T06:41:31;4.00;99.90
75321;DHT22;68337;52.196;5.660;2023-11-25T06:43:57;4.10;99.90
75321;DHT22;68337;52.196;5.660;2023-11-25T06:46:22;4.20;99.90
75321;DHT22;68337;52.196;5.660;2023-11-25T06:48:48;4.20;99.90
75321;DHT22;68337;52.196;5.660;2023-11-25T06:51:14;4.30;99.90
75321;DHT22;68337;52.196;5.660;2023-11-25T06:53:41;4.40;99.90
75321;DHT22;68337;52.196;5.660;2023-11-25T06:56:10;4.40;99.90
75321;DHT22;68337;52.196;5.660;2023-11-25T06:58:38;4.40;99.90
75321;DHT22;68337;52.196;5.660;2023-11-25T07:01:04;4.40;99.90
75321;DHT22;68337;52.196;5.660;2023-11-25T07:03:30;4.30;99.90
75321;DHT22;68337;52.196;5.660;2023-11-25T07:05:56;4.30;99.90
75321;DHT22;68337;52.196;5.660;2023-11-25T07:08:23;4.30;99.90
75321;DHT22;68337;52.196;5.660;2023-11-25T07:10:50;4.30;99.90
75321;DHT22;68337;52.196;5.660;2023-11-25T07:13:25;4.30;99.90
75321;DHT22;68337;52.196;5.660;2023-11-25T07:15:53;4.20;99.90
75321;DHT22;68337;52.196;5.660;2023-11-25T07:18:19;4.20;99.90
75321;DHT22;68337;52.196;5.660;2023-11-25T07:20:46;4.10;99.90
75321;DHT22;68337;52.196;5.660;2023-11-25T07:23:12;4.10;99.90
75321;DHT22;68337;52.196;5.660;2023-11-25T07:25:39;4.00;99.90
75321;DHT22;68337;52.196;5.660;2023-11-25T07:28:08;4.00;99.90
75321;DHT22;68337;52.196;5.660;2023-11-25T07:30:36;4.00;99.90
75321;DHT22;68337;52.196;5.660;2023-11-25T07:33:03;4.00;99.90
75321;DHT22;68337;52.196;5.660;2023-11-25T07:35:29;4.10;99.90
75321;DHT22;68337;52.196;5.660;2023-11-25T07:37:55;4.00;99.90
75321;DHT22;68337;52.196;5.660;2023-11-25T07:40:21;4.00;99.90
75321;DHT22;68337;52.196;5.660;2023-11-25T07:42:47;4.00;99.90
75321;DHT22;68337;52.196;5.660;2023-11-25T07:45:14;4.10;99.90
75321;DHT22;68337;52.196;5.660;2023-11-25T07:47:42;4.00;99.90
75321;DHT22;68337;52.196;5.660;2023-11-25T07:50:10;4.00;99.90
75321;DHT22;68337;52.196;5.660;2023-11-25T07:52:37;4.00;99.90
75321;DHT22;68337;52.196;5.660;2023-11-25T07:55:03;4.10;99.90
75321;DHT22;68337;52.196;5.660;2023-11-25T07:57:32;4.20;99.90
75321;DHT22;68337;52.196;5.660;2023-11-25T07:59:58;4.30;99.90
75321;DHT22;68337;52.196;5.660;2023-11-25T08:02:24;4.30;99.90
75321;DHT22;68337;52.196;5.660;2023-11-25T08:04:53;4.30;99.90
75321;DHT22;68337;52.196;5.660;2023-11-25T08:07:19;4.30;99.90
75321;DHT22;68337;52.196;5.660;2023-11-25T08:09:44;4.40;99.90
75321;DHT22;68337;52.196;5.660;2023-11-25T08:12:10;4.40;99.90
75321;DHT22;68337;52.196;5.660;2023-11-25T08:14:36;4.60;99.90
75321;DHT22;68337;52.196;5.660;2023-11-25T08:17:02;4.60;99.90
75321;DHT22;68337;52.196;5.660;2023-11-25T08:19:28;4.60;99.90
75321;DHT22;68337;52.196;5.660;2023-11-25T08:21:53;4.70;99.90
75321;DHT22;68337;52.196;5.660;2023-11-25T08:24:19;4.70;99.90
75321;DHT22;68337;52.196;5.660;2023-11-25T08:26:46;4.80;99.90
75321;DHT22;68337;52.196;5.660;2023-11-25T08:29:12;4.90;99.90
75321;DHT22;68337;52.196;5.660;2023-11-25T08:31:38;5.00;99.90
75321;DHT22;68337;52.196;5.660;2023-11-25T08:34:05;5.10;99.90
75321;DHT22;68337;52.196;5.660;2023-11-25T08:36:40;5.20;99.90
75321;DHT22;68337;52.196;5.660;2023-11-25T08:39:20;5.30;99.90
75321;DHT22;68337;52.196;5.660;2023-11-25T08:41:46;5.30;99.90
75321;DHT22;68337;52.196;5.660;2023-11-25T08:44:13;5.40;99.90
75321;DHT22;68337;52.196;5.660;2023-11-25T08:46:42;5.40;99.90
75321;DHT22;68337;52.196;5.660;2023-11-25T08:49:12;5.40;99.90
75321;DHT22;68337;52.196;5.660;2023-11-25T08:51:42;5.50;99.90
75321;DHT22;68337;52.196;5.660;2023-11-25T08:54:12;5.60;99.90
75321;DHT22;68337;52.196;5.660;2023-11-25T08:56:41;5.60;99.90
75321;DHT22;68337;52.196;5.660;2023-11-25T08:59:11;5.70;99.90
75321;DHT22;68337;52.196;5.660;2023-11-25T09:01:40;5.70;99.90
75321;DHT22;68337;52.196;5.660;2023-11-25T09:04:08;5.90;99.90
75321;DHT22;68337;52.196;5.660;2023-11-25T09:06:34;6.00;99.90
75321;DHT22;68337;52.196;5.660;2023-11-25T09:09:03;6.00;99.90
75321;DHT22;68337;52.196;5.660;2023-11-25T09:11:35;6.10;99.90
75321;DHT22;68337;52.196;5.660;2023-11-25T09:14:02;6.00;99.90
75321;DHT22;68337;52.196;5.660;2023-11-25T09:16:32;6.00;99.90
75321;DHT22;68337;52.196;5.660;2023-11-25T09:18:58;6.10;99.90
75321;DHT22;68337;52.196;5.660;2023-11-25T09:21:23;6.10;99.90
75321;DHT22;68337;52.196;5.660;2023-11-25T09:23:50;6.00;99.90
75321;DHT22;68337;52.196;5.660;2023-11-25T09:26:15;6.00;99.90
75321;DHT22;68337;52.196;5.660;2023-11-25T09:28:41;6.00;99.90
75321;DHT22;68337;52.196;5.660;2023-11-25T09:31:07;6.00;99.90
75321;DHT22;68337;52.196;5.660;2023-11-25T09:33:33;6.00;99.90
75321;DHT22;68337;52.196;5.660;2023-11-25T09:35:59;6.00;99.90
75321;DHT22;68337;52.196;5.660;2023-11-25T09:38:25;6.20;99.90
75321;DHT22;68337;52.196;5.660;2023-11-25T09:40:51;6.40;99.90
75321;DHT22;68337;52.196;5.660;2023-11-25T09:43:20;6.50;99.90
75321;DHT22;68337;52.196;5.660;2023-11-25T09:45:48;6.60;99.90
75321;DHT22;68337;52.196;5.660;2023-11-25T09:48:15;6.80;99.90
75321;DHT22;68337;52.196;5.660;2023-11-25T09:50:41;7.00;99.90
75321;DHT22;68337;52.196;5.660;2023-11-25T09:53:25;7.10;99.90
75321;DHT22;68337;52.196;5.660;2023-11-25T09:56:06;7.10;99.90
75321;DHT22;68337;52.196;5.660;2023-11-25T09:58:37;6.90;99.90
75321;DHT22;68337;52.196;5.660;2023-11-25T10:01:03;6.80;99.90
75321;DHT22;68337;52.196;5.660;2023-11-25T10:03:39;6.80;99.90
75321;DHT22;68337;52.196;5.660;2023-11-25T10:06:05;6.70;99.90
75321;DHT22;68337;52.196;5.660;2023-11-25T10:08:31;6.70;99.90
75321;DHT22;68337;52.196;5.660;2023-11-25T10:13:37;6.90;99.90
75321;DHT22;68337;52.196;5.660;2023-11-25T10:16:03;7.00;99.90
75321;DHT22;68337;52.196;5.660;2023-11-25T10:18:30;7.20;99.90
75321;DHT22;68337;52.196;5.660;2023-11-25T10:20:56;7.30;99.90
75321;DHT22;68337;52.196;5.660;2023-11-25T10:23:28;7.30;99.90
75321;DHT22;68337;52.196;5.660;2023-11-25T10:25:55;7.40;99.90
75321;DHT22;68337;52.196;5.660;2023-11-25T10:28:25;7.50;99.90
75321;DHT22;68337;52.196;5.660;2023-11-25T10:31:09;7.50;99.90
75321;DHT22;68337;52.196;5.660;2023-11-25T10:33:35;7.80;99.90
75321;DHT22;68337;52.196;5.660;2023-11-25T10:36:06;8.00;99.90
75321;DHT22;68337;52.196;5.660;2023-11-25T10:38:32;8.00;99.90
75321;DHT22;68337;52.196;5.660;2023-11-25T10:41:02;8.00;99.90
75321;DHT22;68337;52.196;5.660;2023-11-25T10:43:28;7.90;99.90
75321;DHT22;68337;52.196;5.660;2023-11-25T10:48:27;7.70;99.90
75321;DHT22;68337;52.196;5.660;2023-11-25T10:50:53;7.60;99.90
75321;DHT22;68337;52.196;5.660;2023-11-25T10:53:20;7.60;99.90
75321;DHT22;68337;52.196;5.660;2023-11-25T10:55:47;7.50;99.90
75321;DHT22;68337;52.196;5.660;2023-11-25T10:58:14;7.50;99.90
75321;DHT22;68337;52.196;5.660;2023-11-25T11:00:41;7.40;99.90
75321;DHT22;68337;52.196;5.660;2023-11-25T11:03:09;7.40;99.90
75321;DHT22;68337;52.196;5.660;2023-11-25T11:08:24;7.20;99.90
75321;DHT22;68337;52.196;5.660;2023-11-25T11:10:56;7.30;99.90
75321;DHT22;68337;52.196;5.660;2023-11-25T11:13:33;7.50;99.90
75321;DHT22;68337;52.196;5.660;2023-11-25T11:16:25;7.60;99.90
75321;DHT22;68337;52.196;5.660;2023-11-25T11:18:47;7.70;99.90
75321;DHT22;68337;52.196;5.660;2023-11-25T11:21:14;7.80;99.90
75321;DHT22;68337;52.196;5.660;2023-11-25T11:23:41;7.90;99.90
75321;DHT22;68337;52.196;5.660;2023-11-25T11:26:23;8.00;99.90
75321;DHT22;68337;52.196;5.660;2023-11-25T11:34:28;8.20;99.90
75321;DHT22;68337;52.196;5.660;2023-11-25T11:36:55;8.30;99.90
75321;DHT22;68337;52.196;5.660;2023-11-25T11:39:40;8.40;99.90
75321;DHT22;68337;52.196;5.660;2023-11-25T11:42:24;8.50;99.90
75321;DHT22;68337;52.196;5.660;2023-11-25T11:45:15;8.60;99.90
75321;DHT22;68337;52.196;5.660;2023-11-25T11:47:58;8.60;99.90
75321;DHT22;68337;52.196;5.660;2023-11-25T11:50:32;8.60;99.90
75321;DHT22;68337;52.196;5.660;2023-11-25T11:55:40;8.60;99.90
75321;DHT22;68337;52.196;5.660;2023-11-25T11:58:14;8.60;99.90
75321;DHT22;68337;52.196;5.660;2023-11-25T12:00:53;8.60;99.90
75321;DHT22;68337;52.196;5.660;2023-11-25T12:03:20;8.60;99.90
75321;DHT22;68337;52.196;5.660;2023-11-25T12:05:46;8.70;99.90
75321;DHT22;68337;52.196;5.660;2023-11-25T12:08:14;8.90;99.90
75321;DHT22;68337;52.196;5.660;2023-11-25T12:10:40;8.80;99.90
75321;DHT22;68337;52.196;5.660;2023-11-25T12:13:06;8.70;99.90
75321;DHT22;68337;52.196;5.660;2023-11-25T12:15:34;8.60;99.90
75321;DHT22;68337;52.196;5.660;2023-11-25T12:18:01;8.70;99.90
75321;DHT22;68337;52.196;5.660;2023-11-25T12:20:27;8.70;99.90
75321;DHT22;68337;52.196;5.660;2023-11-25T12:22:54;8.70;99.90
75321;DHT22;68337;52.196;5.660;2023-11-25T12:25:20;8.60;99.90
75321;DHT22;68337;52.196;5.660;2023-11-25T12:28:04;8.30;99.90
75321;DHT22;68337;52.196;5.660;2023-11-25T12:30:30;8.10;99.90
75321;DHT22;68337;52.196;5.660;2023-11-25T12:33:00;8.00;99.90
75321;DHT22;68337;52.196;5.660;2023-11-25T12:35:26;8.00;99.90
75321;DHT22;68337;52.196;5.660;2023-11-25T12:37:52;8.00;99.90
75321;DHT22;68337;52.196;5.660;2023-11-25T12:40:20;8.10;99.90
75321;DHT22;68337;52.196;5.660;2023-11-25T12:42:51;8.30;99.90
75321;DHT22;68337;52.196;5.660;2023-11-25T12:45:40;8.40;99.90
75321;DHT22;68337;52.196;5.660;2023-11-25T12:48:08;8.50;99.90
75321;DHT22;68337;52.196;5.660;2023-11-25T12:50:57;8.60;99.90
75321;DHT22;68337;52.196;5.660;2023-11-25T12:53:20;8.60;99.90
75321;DHT22;68337;52.196;5.660;2023-11-25T12:55:47;8.70;99.90
75321;DHT22;68337;52.196;5.660;2023-11-25T12:58:17;8.60;99.90
75321;DHT22;68337;52.196;5.660;2023-11-25T13:00:53;8.70;99.90
75321;DHT22;68337;52.196;5.660;2023-11-25T13:03:29;8.70;99.90
75321;DHT22;68337;52.196;5.660;2023-11-25T13:06:00;8.70;99.90
75321;DHT22;68337;52.196;5.660;2023-11-25T13:08:28;8.40;99.90
75321;DHT22;68337;52.196;5.660;2023-11-25T13:11:01;8.20;99.90
75321;DHT22;68337;52.196;5.660;2023-11-25T13:13:29;8.00;99.90
75321;DHT22;68337;52.196;5.660;2023-11-25T13:15:58;7.80;99.90
75321;DHT22;68337;52.196;5.660;2023-11-25T13:18:24;7.70;99.90
75321;DHT22;68337;52.196;5.660;2023-11-25T13:20:52;7.70;99.90
75321;DHT22;68337;52.196;5.660;2023-11-25T13:23:19;7.70;99.90
75321;DHT22;68337;52.196;5.660;2023-11-25T13:25:48;7.60;99.90
75321;DHT22;68337;52.196;5.660;2023-11-25T13:28:14;7.50;99.90
75321;DHT22;68337;52.196;5.660;2023-11-25T13:30:41;7.40;99.90
75321;DHT22;68337;52.196;5.660;2023-11-25T13:33:07;7.30;99.90
75321;DHT22;68337;52.196;5.660;2023-11-25T13:35:37;7.30;99.90
75321;DHT22;68337;52.196;5.660;2023-11-25T13:38:03;7.30;99.90
75321;DHT22;68337;52.196;5.660;2023-11-25T13:40:32;7.40;99.90
75321;DHT22;68337;52.196;5.660;2023-11-25T13:43:08;7.50;99.90
75321;DHT22;68337;52.196;5.660;2023-11-25T13:45:42;7.60;99.90
75321;DHT22;68337;52.196;5.660;2023-11-25T13:48:08;7.70;99.90
75321;DHT22;68337;52.196;5.660;2023-11-25T13:50:35;7.70;99.90
75321;DHT22;68337;52.196;5.660;2023-11-25T13:53:01;7.70;99.90
75321;DHT22;68337;52.196;5.660;2023-11-25T13:55:28;7.60;99.90
75321;DHT22;68337;52.196;5.660;2023-11-25T13:57:56;7.50;99.90
75321;DHT22;68337;52.196;5.660;2023-11-25T14:00:21;7.50;99.90
75321;DHT22;68337;52.196;5.660;2023-11-25T14:02:51;7.50;99.90
75321;DHT22;68337;52.196;5.660;2023-11-25T14:05:16;7.40;99.90
75321;DHT22;68337;52.196;5.660;2023-11-25T14:07:42;7.30;99.90
75321;DHT22;68337;52.196;5.660;2023-11-25T14:10:09;7.30;99.90
75321;DHT22;68337;52.196;5.660;2023-11-25T14:12:35;7.30;99.90
75321;DHT22;68337;52.196;5.660;2023-11-25T14:15:02;7.20;99.90
75321;DHT22;68337;52.196;5.660;2023-11-25T14:17:30;7.30;99.90
75321;DHT22;68337;52.196;5.660;2023-11-25T14:19:56;7.30;99.90
75321;DHT22;68337;52.196;5.660;2023-11-25T14:22:22;7.20;99.90
75321;DHT22;68337;52.196;5.660;2023-11-25T14:24:49;7.20;99.90
75321;DHT22;68337;52.196;5.660;2023-11-25T14:27:15;7.10;99.90
75321;DHT22;68337;52.196;5.660;2023-11-25T14:29:41;7.10;99.90
75321;DHT22;68337;52.196;5.660;2023-11-25T14:32:10;7.20;99.90
75321;DHT22;68337;52.196;5.660;2023-11-25T14:34:37;7.20;99.90
75321;DHT22;68337;52.196;5.660;2023-11-25T14:37:03;7.20;99.90
75321;DHT22;68337;52.196;5.660;2023-11-25T14:39:29;7.20;99.90
75321;DHT22;68337;52.196;5.660;2023-11-25T14:42:01;7.20;99.90
75321;DHT22;68337;52.196;5.660;2023-11-25T14:44:29;7.20;99.90
75321;DHT22;68337;52.196;5.660;2023-11-25T14:46:55;7.20;99.90
75321;DHT22;68337;52.196;5.660;2023-11-25T14:49:24;7.20;99.90
75321;DHT22;68337;52.196;5.660;2023-11-25T14:51:51;7.30;99.90
75321;DHT22;68337;52.196;5.660;2023-11-25T14:54:19;7.10;99.90
75321;DHT22;68337;52.196;5.660;2023-11-25T14:56:45;7.10;99.90
75321;DHT22;68337;52.196;5.660;2023-11-25T14:59:14;7.10;99.90
75321;DHT22;68337;52.196;5.660;2023-11-25T15:01:41;7.00;99.90
75321;DHT22;68337;52.196;5.660;2023-11-25T15:04:07;7.00;99.90
75321;DHT22;68337;52.196;5.660;2023-11-25T15:06:36;7.00;99.90
75321;DHT22;68337;52.196;5.660;2023-11-25T15:09:02;7.00;99.90
75321;DHT22;68337;52.196;5.660;2023-11-25T15:11:28;7.00;99.90
75321;DHT22;68337;52.196;5.660;2023-11-25T15:13:54;6.90;99.90
75321;DHT22;68337;52.196;5.660;2023-11-25T15:16:20;7.00;99.90
75321;DHT22;68337;52.196;5.660;2023-11-25T15:18:45;7.00;99.90
75321;DHT22;68337;52.196;5.660;2023-11-25T15:21:16;7.10;99.90
75321;DHT22;68337;52.196;5.660;2023-11-25T15:23:44;7.00;99.90
75321;DHT22;68337;52.196;5.660;2023-11-25T15:26:09;7.00;99.90
75321;DHT22;68337;52.196;5.660;2023-11-25T15:28:39;7.00;99.90
75321;DHT22;68337;52.196;5.660;2023-11-25T15:31:09;7.00;99.90
75321;DHT22;68337;52.196;5.660;2023-11-25T15:33:35;6.90;99.90
75321;DHT22;68337;52.196;5.660;2023-11-25T15:36:01;6.90;99.90
75321;DHT22;68337;52.196;5.660;2023-11-25T15:38:27;6.80;99.90
75321;DHT22;68337;52.196;5.660;2023-11-25T15:40:52;6.80;99.90
75321;DHT22;68337;52.196;5.660;2023-11-25T15:43:18;6.80;99.90
75321;DHT22;68337;52.196;5.660;2023-11-25T15:45:44;6.80;99.90
75321;DHT22;68337;52.196;5.660;2023-11-25T15:48:11;6.70;99.90
75321;DHT22;68337;52.196;5.660;2023-11-25T15:50:37;6.70;99.90
75321;DHT22;68337;52.196;5.660;2023-11-25T15:53:02;6.60;99.90
75321;DHT22;68337;52.196;5.660;2023-11-25T15:55:30;6.60;99.90
75321;DHT22;68337;52.196;5.660;2023-11-25T15:57:56;6.60;99.90
75321;DHT22;68337;52.196;5.660;2023-11-25T16:00:22;6.50;99.90
75321;DHT22;68337;52.196;5.660;2023-11-25T16:02:49;6.50;99.90
75321;DHT22;68337;52.196;5.660;2023-11-25T16:05:17;6.50;99.90